Argent Gerbera — V7UC4 — position and weather

sailwx.info

Track history (hours):
 
Tides and Currents Weather Stations Pressure Air Temp Water Temp Dewpoint Dewpoint Depression Visibility Wind Speed Wind Dir Waves Ship Positions

Argent Gerbera

Last reported at 2016-Dec-07 15:34 UTC. Time now 2016-Dec-09 13:38 UTC.
Position N 48°31' W 126°14'.

Length 175 m; draft 11.3 m.

Type: Ship (hazmat cat A). MMSI: 538003929.

Date/timePositionNaut miles runAvg speedWind from/ knotsBaromVisibWave heightAir tempDewpointWater temp
2016-Dec-07 15:34N 48°31' W 126°14'1515.3
2016-Dec-07 14:33N 48°31' W 125°51'1515.1
2016-Dec-07 13:33N 48°31' W 125°28'1515.1
2016-Dec-07 12:33N 48°31' W 125°05'1515.3
2016-Dec-07 11:34N 48°30' W 124°42'1615.9
2016-Dec-07 10:33N 48°24' W 124°20'1616.5
2016-Dec-07 09:33N 48°18' W 123°57'1716.8
2016-Dec-07 08:33N 48°16' W 123°32'1312.5
2016-Dec-07 07:33N 48°23' W 123°17'1413.9
2016-Dec-07 06:34N 48°37' W 123°14'1312.5
2016-Dec-07 05:33N 48°47' W 123°02'1313.1
2016-Dec-07 04:33N 48°57' W 123°14'1313.1
2016-Dec-07 03:33N 49°09' W 123°24'1312.6
2016-Dec-07 02:33N 49°19' W 123°13'8 8.3
2016-Dec-07 01:33N 49°18' W 123°01'4 4.2
2016-Dec-07 00:33N 49°18' W 122°54'1 1.4
2016-Dec-06 23:32N 49°17' W 122°52'0 0.0
2016-Dec-06 22:32N 49°17' W 122°52'0 0.0
2016-Dec-06 21:32N 49°17' W 122°52'0 0.0
2016-Dec-06 20:32N 49°17' W 122°52'0 0.0
2016-Dec-06 18:32N 49°17' W 122°52'0 0.0
2016-Dec-06 17:26N 49°17' W 122°52'0 0.0
2016-Dec-06 16:32N 49°17' W 122°52'0 0.0
2016-Dec-06 15:26N 49°17' W 122°52'0 0.0
2016-Dec-06 14:26N 49°17' W 122°52'0 0.0
2016-Dec-06 13:32N 49°17' W 122°52'0 0.0
2016-Dec-06 12:32N 49°17' W 122°52'0 0.0
2016-Dec-06 11:32N 49°17' W 122°52'0 0.0
2016-Dec-06 10:32N 49°17' W 122°52'0 0.0
2016-Dec-06 09:32N 49°17' W 122°52'0 0.0
2016-Dec-06 08:26N 49°17' W 122°52'0 0.0
2016-Dec-06 07:26N 49°17' W 122°52'0 0.0
2016-Dec-06 06:32N 49°17' W 122°52'0 0.0
2016-Dec-06 05:32N 49°17' W 122°52'0 0.0
2016-Dec-06 04:32N 49°17' W 122°52'0 0.0
2016-Dec-06 03:26N 49°17' W 122°52'0 0.0
2016-Dec-06 02:32N 49°17' W 122°52'0 0.0
2016-Dec-06 01:32N 49°17' W 122°52'0 0.0
2016-Dec-06 00:32N 49°17' W 122°52'0 0.0
2016-Dec-05 23:23N 49°17' W 122°52'0 0.0
2016-Dec-05 22:32N 49°17' W 122°52'0 0.0
2016-Dec-05 21:32N 49°17' W 122°52'0 0.0
2016-Dec-05 20:32N 49°17' W 122°52'0 0.0
2016-Dec-05 19:32N 49°17' W 122°52'0 0.0
2016-Dec-05 18:32N 49°17' W 122°52'0 0.0
2016-Dec-05 17:32N 49°17' W 122°52'0 0.0
2016-Dec-05 16:08N 49°17' W 122°52'0 0.0
2016-Dec-05 15:32N 49°17' W 122°52'0 0.0
2016-Dec-05 14:32N 49°17' W 122°52'0 0.0
2016-Dec-05 13:32N 49°17' W 122°52'0 0.2
2016-Dec-05 12:33N 49°18' W 122°52'5 4.9
2016-Dec-05 11:33N 49°18' W 122°60'3 2.9
2016-Dec-05 10:32N 49°17' W 123°04'0 0.0
2016-Dec-05 09:32N 49°17' W 123°04'0 0.0
2016-Dec-05 08:32N 49°17' W 123°04'0 0.0
2016-Dec-05 07:32N 49°17' W 123°04'0 0.0
2016-Dec-05 06:32N 49°17' W 123°04'0 0.0
2016-Dec-05 05:32N 49°17' W 123°04'0 0.0
2016-Dec-05 04:32N 49°17' W 123°04'0 0.0
2016-Dec-05 03:32N 49°17' W 123°04'0 0.0
2016-Dec-05 02:29N 49°17' W 123°04'0 0.0
2016-Dec-05 01:32N 49°17' W 123°04'0 0.0
2016-Dec-05 00:32N 49°17' W 123°04'0 0.0
2016-Dec-04 23:32N 49°17' W 123°04'0 0.0
2016-Dec-04 22:32N 49°17' W 123°04'0 0.0
2016-Dec-04 21:32N 49°17' W 123°04'0 0.0
2016-Dec-04 20:32N 49°17' W 123°04'0 0.0
2016-Dec-04 19:32N 49°17' W 123°04'0 0.0
2016-Dec-04 18:32N 49°17' W 123°04'0 0.0
2016-Dec-04 17:32N 49°17' W 123°04'0 0.0
2016-Dec-04 16:32N 49°17' W 123°04'0 0.0
2016-Dec-04 15:32N 49°17' W 123°04'0 0.0
2016-Dec-04 14:32N 49°17' W 123°04'0 0.0
2016-Dec-04 13:32N 49°17' W 123°04'0 0.0
2016-Dec-04 12:32N 49°17' W 123°04'0 0.0
2016-Dec-04 11:32N 49°17' W 123°04'0 0.0
2016-Dec-04 10:32N 49°17' W 123°04'0 0.0
2016-Dec-04 09:32N 49°17' W 123°04'0 0.0
2016-Dec-04 08:32N 49°17' W 123°04'0 0.0
2016-Dec-04 07:32N 49°17' W 123°04'0 0.0
2016-Dec-04 06:32N 49°17' W 123°04'0 0.0
2016-Dec-04 05:32N 49°17' W 123°04'0 0.0
2016-Dec-04 04:32N 49°17' W 123°04'0 0.0
2016-Dec-04 03:32N 49°17' W 123°04'0 0.0
2016-Dec-04 02:32N 49°17' W 123°04'0 0.0
2016-Dec-04 01:32N 49°17' W 123°04'0 0.0
2016-Dec-04 00:32N 49°17' W 123°04'0 0.0
2016-Dec-03 23:32N 49°17' W 123°04'0 0.0
2016-Dec-03 22:32N 49°17' W 123°04'0 0.0
2016-Dec-03 21:32N 49°17' W 123°04'0 0.0
2016-Dec-03 20:32N 49°17' W 123°04'0 0.0
2016-Dec-03 19:32N 49°17' W 123°04'0 0.0
2016-Dec-03 18:32N 49°17' W 123°04'0 0.0
2016-Dec-03 17:32N 49°17' W 123°04'0 0.0
2016-Dec-03 16:32N 49°17' W 123°04'0 0.0
2016-Dec-03 15:32N 49°17' W 123°04'0 0.0
2016-Dec-03 14:32N 49°17' W 123°04'0 0.0
2016-Dec-03 13:32N 49°17' W 123°04'0 0.0
2016-Dec-03 12:32N 49°17' W 123°04'0 0.0
2016-Dec-03 11:32N 49°17' W 123°04'0 0.0
2016-Dec-03 10:32N 49°17' W 123°04'0 0.0
2016-Dec-03 09:32N 49°17' W 123°04'0 0.0
2016-Dec-03 08:32N 49°17' W 123°04'0 0.0
2016-Dec-03 07:32N 49°17' W 123°04'0 0.0
2016-Dec-03 06:29N 49°17' W 123°04'0 0.0
2016-Dec-03 05:32N 49°17' W 123°04'0 0.0
2016-Dec-03 04:32N 49°17' W 123°04'0 0.0
2016-Dec-03 03:32N 49°17' W 123°04'0 0.0
2016-Dec-03 02:32N 49°17' W 123°04'0 0.0
2016-Dec-03 01:32N 49°17' W 123°04'0 0.0
2016-Dec-03 00:32N 49°17' W 123°04'0 0.0
2016-Dec-02 23:32N 49°17' W 123°04'0 0.0
2016-Dec-02 22:32N 49°17' W 123°04'0 0.0
2016-Dec-02 21:32N 49°17' W 123°04'0 0.0
2016-Dec-02 20:32N 49°17' W 123°04'0 0.0
2016-Dec-02 19:32N 49°17' W 123°04'0 0.0
2016-Dec-02 18:32N 49°17' W 123°04'0 0.0
2016-Dec-02 17:32N 49°17' W 123°04'0 0.0
2016-Dec-02 16:32N 49°17' W 123°04'0 0.0
2016-Dec-02 15:32N 49°17' W 123°04'0 0.0
2016-Dec-02 14:32N 49°17' W 123°04'0 0.0
2016-Dec-02 13:32N 49°17' W 123°04'0 0.0
2016-Dec-02 12:32N 49°17' W 123°04'0 0.0
2016-Dec-02 11:32N 49°17' W 123°04'0 0.0
2016-Dec-02 10:32N 49°17' W 123°04'0 0.0
2016-Dec-02 09:32N 49°17' W 123°04'0 0.0
2016-Dec-02 08:32N 49°17' W 123°04'0 0.0
2016-Dec-02 07:32N 49°17' W 123°04'0 0.0
2016-Dec-02 06:32N 49°17' W 123°04'0 0.0
2016-Dec-02 05:32N 49°17' W 123°04'0 0.0
2016-Dec-02 04:32N 49°17' W 123°04'0 0.0
2016-Dec-02 03:32N 49°17' W 123°04'0 0.0
2016-Dec-02 02:32N 49°17' W 123°04'0 0.0
2016-Dec-02 01:29N 49°17' W 123°04'0 0.0
2016-Dec-02 00:32N 49°17' W 123°04'0 0.0
2016-Dec-01 23:32N 49°17' W 123°04'0 0.0
2016-Dec-01 22:32N 49°17' W 123°04'0 0.0
2016-Dec-01 21:32N 49°17' W 123°04'0 0.0
2016-Dec-01 20:32N 49°17' W 123°04'0 0.0
2016-Dec-01 19:32N 49°17' W 123°04'0 0.0
2016-Dec-01 18:32N 49°17' W 123°04'0 0.0
2016-Dec-01 17:32N 49°17' W 123°04'0 0.0
2016-Dec-01 16:32N 49°17' W 123°04'0 0.0
2016-Dec-01 15:32N 49°17' W 123°04'0 0.0
2016-Dec-01 14:32N 49°17' W 123°04'0 0.0
2016-Dec-01 13:32N 49°17' W 123°04'0 0.0
2016-Dec-01 12:32N 49°17' W 123°04'0 0.0
2016-Dec-01 11:32N 49°17' W 123°04'0 0.0
2016-Dec-01 10:32N 49°17' W 123°04'0 0.0
2016-Dec-01 09:32N 49°17' W 123°04'0 0.0
2016-Dec-01 08:32N 49°17' W 123°04'0 0.0
2016-Dec-01 07:32N 49°17' W 123°04'3 2.7
2016-Dec-01 06:34N 49°19' W 123°08'3 2.9
2016-Dec-01 05:32N 49°17' W 123°11'0 0.0
2016-Dec-01 04:29N 49°17' W 123°11'0 0.0
2016-Dec-01 03:32N 49°17' W 123°11'0 0.0
2016-Dec-01 02:32N 49°17' W 123°11'0 0.0
2016-Dec-01 01:32N 49°17' W 123°11'0 0.0
2016-Dec-01 00:32N 49°17' W 123°11'0 0.0
2016-Nov-30 23:32N 49°17' W 123°11'0 0.0
2016-Nov-30 22:32N 49°17' W 123°11'0 0.0
2016-Nov-30 21:32N 49°17' W 123°11'0 0.1
2016-Nov-30 20:32N 49°17' W 123°12'0 0.2
2016-Nov-30 19:32N 49°17' W 123°12'0 0.0
2016-Nov-30 18:32N 49°17' W 123°12'0 0.0
2016-Nov-30 17:32N 49°17' W 123°12'0 0.0
2016-Nov-30 16:32N 49°17' W 123°12'0 0.0
2016-Nov-30 15:32N 49°17' W 123°12'0 0.0
2016-Nov-30 14:32N 49°17' W 123°12'0 0.0
2016-Nov-30 13:32N 49°17' W 123°12'0 0.0
2016-Nov-30 12:32N 49°17' W 123°12'0 0.0
2016-Nov-30 11:32N 49°17' W 123°12'0 0.0
2016-Nov-30 10:32N 49°17' W 123°12'0 0.0
2016-Nov-30 09:32N 49°17' W 123°12'0 0.0
2016-Nov-30 08:32N 49°17' W 123°12'0 0.1
2016-Nov-30 07:32N 49°17' W 123°12'0 0.1
2016-Nov-30 06:32N 49°17' W 123°12'0 0.0
2016-Nov-30 05:32N 49°17' W 123°12'0 0.0
2016-Nov-30 04:32N 49°17' W 123°12'0 0.0
2016-Nov-30 03:32N 49°17' W 123°12'0 0.1
2016-Nov-30 02:32N 49°17' W 123°12'0 0.0
2016-Nov-30 01:32N 49°17' W 123°12'0 0.0
2016-Nov-30 00:32N 49°17' W 123°12'0 0.0
2016-Nov-29 23:32N 49°17' W 123°12'0 0.0
2016-Nov-29 22:32N 49°17' W 123°12'0 0.0
2016-Nov-29 21:32N 49°17' W 123°12'0 0.0
2016-Nov-29 20:32N 49°17' W 123°12'0 0.0
2016-Nov-29 19:32N 49°17' W 123°12'0 0.0
2016-Nov-29 18:32N 49°17' W 123°12'0 0.0
2016-Nov-29 17:32N 49°17' W 123°12'0 0.0
2016-Nov-29 16:32N 49°17' W 123°12'0 0.0
2016-Nov-29 15:32N 49°17' W 123°12'0 0.0
2016-Nov-29 14:32N 49°17' W 123°12'0 0.0
2016-Nov-29 13:32N 49°17' W 123°12'0 0.0
2016-Nov-29 12:32N 49°17' W 123°12'0 0.0
2016-Nov-29 11:32N 49°17' W 123°12'0 0.0
2016-Nov-29 10:32N 49°17' W 123°12'0 0.1
2016-Nov-29 09:32N 49°17' W 123°12'0 0.0
2016-Nov-29 08:32N 49°17' W 123°11'0 0.0
2016-Nov-29 07:32N 49°17' W 123°11'0 0.0
2016-Nov-29 06:32N 49°17' W 123°11'0 0.0
2016-Nov-29 05:32N 49°17' W 123°11'0 0.0
2016-Nov-29 04:32N 49°17' W 123°11'0 0.1
2016-Nov-29 03:32N 49°17' W 123°11'0 0.1
2016-Nov-29 02:32N 49°17' W 123°12'0 0.1
2016-Nov-29 01:32N 49°17' W 123°11'0 0.0
2016-Nov-29 00:32N 49°17' W 123°11'0 0.0
2016-Nov-28 23:32N 49°17' W 123°11'0 0.0
2016-Nov-28 22:32N 49°17' W 123°11'0 0.0
2016-Nov-28 21:32N 49°17' W 123°11'0 0.1
2016-Nov-28 20:32N 49°17' W 123°11'0 0.2
2016-Nov-28 19:32N 49°17' W 123°12'0 0.1
2016-Nov-28 18:32N 49°17' W 123°12'0 0.1
2016-Nov-28 17:32N 49°17' W 123°12'0 0.0
2016-Nov-28 16:32N 49°17' W 123°12'0 0.0
2016-Nov-28 15:32N 49°17' W 123°12'0 0.0
2016-Nov-28 14:32N 49°17' W 123°12'0 0.1
2016-Nov-28 13:32N 49°17' W 123°12'0 0.1
2016-Nov-28 12:32N 49°17' W 123°11'0 0.1
2016-Nov-28 11:32N 49°17' W 123°11'0 0.0
2016-Nov-28 10:32N 49°17' W 123°11'0 0.0
2016-Nov-28 09:32N 49°17' W 123°11'0 0.0
2016-Nov-28 08:32N 49°17' W 123°11'0 0.0
2016-Nov-28 07:32N 49°17' W 123°11'0 0.0
2016-Nov-28 06:32N 49°17' W 123°11'0 0.2
2016-Nov-28 05:32N 49°17' W 123°12'0 0.0
2016-Nov-28 04:32N 49°17' W 123°12'0 0.0
2016-Nov-28 03:32N 49°17' W 123°12'0 0.0
2016-Nov-28 02:32N 49°17' W 123°12'0 0.0
2016-Nov-28 01:32N 49°17' W 123°12'0 0.0
2016-Nov-28 00:32N 49°17' W 123°12'0 0.0
2016-Nov-27 23:32N 49°17' W 123°12'0 0.0
2016-Nov-27 22:32N 49°17' W 123°12'0 0.0
2016-Nov-27 21:32N 49°17' W 123°12'0 0.0
2016-Nov-27 20:32N 49°17' W 123°12'0 0.0
2016-Nov-27 19:29N 49°17' W 123°12'0 0.2
2016-Nov-27 18:33N 49°17' W 123°11'5 4.5
2016-Nov-27 17:31N 49°17' W 123°04'0 0.0
2016-Nov-27 16:31N 49°17' W 123°04'  
Track history (hours):
 
Tides and Currents Weather Stations Pressure Air Temp Water Temp Dewpoint Dewpoint Depression Visibility Wind Speed Wind Dir Waves Ship Positions

Argent Gerbera

Last reported at 2016-Dec-07 15:34 UTC. Time now 2016-Dec-09 13:38 UTC.
Position N 48°31' W 126°14'.

Length 175 m; draft 11.3 m.

Type: Ship (hazmat cat A). MMSI: 538003929.

Date/timePositionNaut miles runAvg speedWind from/ knotsBaromVisibWave heightAir tempDewpointWater temp
2016-Dec-07 15:34N 48°31' W 126°14'1515.3
2016-Dec-07 14:33N 48°31' W 125°51'1515.1
2016-Dec-07 13:33N 48°31' W 125°28'1515.1
2016-Dec-07 12:33N 48°31' W 125°05'1515.3
2016-Dec-07 11:34N 48°30' W 124°42'1615.9
2016-Dec-07 10:33N 48°24' W 124°20'1616.5
2016-Dec-07 09:33N 48°18' W 123°57'1716.8
2016-Dec-07 08:33N 48°16' W 123°32'1312.5
2016-Dec-07 07:33N 48°23' W 123°17'1413.9
2016-Dec-07 06:34N 48°37' W 123°14'1312.5
2016-Dec-07 05:33N 48°47' W 123°02'1313.1
2016-Dec-07 04:33N 48°57' W 123°14'1313.1
2016-Dec-07 03:33N 49°09' W 123°24'1312.6
2016-Dec-07 02:33N 49°19' W 123°13'8 8.3
2016-Dec-07 01:33N 49°18' W 123°01'4 4.2
2016-Dec-07 00:33N 49°18' W 122°54'1 1.4
2016-Dec-06 23:32N 49°17' W 122°52'0 0.0
2016-Dec-06 22:32N 49°17' W 122°52'0 0.0
2016-Dec-06 21:32N 49°17' W 122°52'0 0.0
2016-Dec-06 20:32N 49°17' W 122°52'0 0.0
2016-Dec-06 18:32N 49°17' W 122°52'0 0.0
2016-Dec-06 17:26N 49°17' W 122°52'0 0.0
2016-Dec-06 16:32N 49°17' W 122°52'0 0.0
2016-Dec-06 15:26N 49°17' W 122°52'0 0.0
2016-Dec-06 14:26N 49°17' W 122°52'0 0.0
2016-Dec-06 13:32N 49°17' W 122°52'0 0.0
2016-Dec-06 12:32N 49°17' W 122°52'0 0.0
2016-Dec-06 11:32N 49°17' W 122°52'0 0.0
2016-Dec-06 10:32N 49°17' W 122°52'0 0.0
2016-Dec-06 09:32N 49°17' W 122°52'0 0.0
2016-Dec-06 08:26N 49°17' W 122°52'0 0.0
2016-Dec-06 07:26N 49°17' W 122°52'0 0.0
2016-Dec-06 06:32N 49°17' W 122°52'0 0.0
2016-Dec-06 05:32N 49°17' W 122°52'0 0.0
2016-Dec-06 04:32N 49°17' W 122°52'0 0.0
2016-Dec-06 03:26N 49°17' W 122°52'0 0.0
2016-Dec-06 02:32N 49°17' W 122°52'0 0.0
2016-Dec-06 01:32N 49°17' W 122°52'0 0.0
2016-Dec-06 00:32N 49°17' W 122°52'0 0.0
2016-Dec-05 23:23N 49°17' W 122°52'0 0.0
2016-Dec-05 22:32N 49°17' W 122°52'0 0.0
2016-Dec-05 21:32N 49°17' W 122°52'0 0.0
2016-Dec-05 20:32N 49°17' W 122°52'0 0.0
2016-Dec-05 19:32N 49°17' W 122°52'0 0.0
2016-Dec-05 18:32N 49°17' W 122°52'0 0.0
2016-Dec-05 17:32N 49°17' W 122°52'0 0.0
2016-Dec-05 16:08N 49°17' W 122°52'0 0.0
2016-Dec-05 15:32N 49°17' W 122°52'0 0.0
2016-Dec-05 14:32N 49°17' W 122°52'0 0.0
2016-Dec-05 13:32N 49°17' W 122°52'0 0.2
2016-Dec-05 12:33N 49°18' W 122°52'5 4.9
2016-Dec-05 11:33N 49°18' W 122°60'3 2.9
2016-Dec-05 10:32N 49°17' W 123°04'0 0.0
2016-Dec-05 09:32N 49°17' W 123°04'0 0.0
2016-Dec-05 08:32N 49°17' W 123°04'0 0.0
2016-Dec-05 07:32N 49°17' W 123°04'0 0.0
2016-Dec-05 06:32N 49°17' W 123°04'0 0.0
2016-Dec-05 05:32N 49°17' W 123°04'0 0.0
2016-Dec-05 04:32N 49°17' W 123°04'0 0.0
2016-Dec-05 03:32N 49°17' W 123°04'0 0.0
2016-Dec-05 02:29N 49°17' W 123°04'0 0.0
2016-Dec-05 01:32N 49°17' W 123°04'0 0.0
2016-Dec-05 00:32N 49°17' W 123°04'0 0.0
2016-Dec-04 23:32N 49°17' W 123°04'0 0.0
2016-Dec-04 22:32N 49°17' W 123°04'0 0.0
2016-Dec-04 21:32N 49°17' W 123°04'0 0.0
2016-Dec-04 20:32N 49°17' W 123°04'0 0.0
2016-Dec-04 19:32N 49°17' W 123°04'0 0.0
2016-Dec-04 18:32N 49°17' W 123°04'0 0.0
2016-Dec-04 17:32N 49°17' W 123°04'0 0.0
2016-Dec-04 16:32N 49°17' W 123°04'0 0.0
2016-Dec-04 15:32N 49°17' W 123°04'0 0.0
2016-Dec-04 14:32N 49°17' W 123°04'0 0.0
2016-Dec-04 13:32N 49°17' W 123°04'0 0.0
2016-Dec-04 12:32N 49°17' W 123°04'0 0.0
2016-Dec-04 11:32N 49°17' W 123°04'0 0.0
2016-Dec-04 10:32N 49°17' W 123°04'0 0.0
2016-Dec-04 09:32N 49°17' W 123°04'0 0.0
2016-Dec-04 08:32N 49°17' W 123°04'0 0.0
2016-Dec-04 07:32N 49°17' W 123°04'0 0.0
2016-Dec-04 06:32N 49°17' W 123°04'0 0.0
2016-Dec-04 05:32N 49°17' W 123°04'0 0.0
2016-Dec-04 04:32N 49°17' W 123°04'0 0.0
2016-Dec-04 03:32N 49°17' W 123°04'0 0.0
2016-Dec-04 02:32N 49°17' W 123°04'0 0.0
2016-Dec-04 01:32N 49°17' W 123°04'0 0.0
2016-Dec-04 00:32N 49°17' W 123°04'0 0.0
2016-Dec-03 23:32N 49°17' W 123°04'0 0.0
2016-Dec-03 22:32N 49°17' W 123°04'0 0.0
2016-Dec-03 21:32N 49°17' W 123°04'0 0.0
2016-Dec-03 20:32N 49°17' W 123°04'0 0.0
2016-Dec-03 19:32N 49°17' W 123°04'0 0.0
2016-Dec-03 18:32N 49°17' W 123°04'0 0.0
2016-Dec-03 17:32N 49°17' W 123°04'0 0.0
2016-Dec-03 16:32N 49°17' W 123°04'0 0.0
2016-Dec-03 15:32N 49°17' W 123°04'0 0.0
2016-Dec-03 14:32N 49°17' W 123°04'0 0.0
2016-Dec-03 13:32N 49°17' W 123°04'0 0.0
2016-Dec-03 12:32N 49°17' W 123°04'0 0.0
2016-Dec-03 11:32N 49°17' W 123°04'0 0.0
2016-Dec-03 10:32N 49°17' W 123°04'0 0.0
2016-Dec-03 09:32N 49°17' W 123°04'0 0.0
2016-Dec-03 08:32N 49°17' W 123°04'0 0.0
2016-Dec-03 07:32N 49°17' W 123°04'0 0.0
2016-Dec-03 06:29N 49°17' W 123°04'0 0.0
2016-Dec-03 05:32N 49°17' W 123°04'0 0.0
2016-Dec-03 04:32N 49°17' W 123°04'0 0.0
2016-Dec-03 03:32N 49°17' W 123°04'0 0.0
2016-Dec-03 02:32N 49°17' W 123°04'0 0.0
2016-Dec-03 01:32N 49°17' W 123°04'0 0.0
2016-Dec-03 00:32N 49°17' W 123°04'0 0.0
2016-Dec-02 23:32N 49°17' W 123°04'0 0.0
2016-Dec-02 22:32N 49°17' W 123°04'0 0.0
2016-Dec-02 21:32N 49°17' W 123°04'0 0.0
2016-Dec-02 20:32N 49°17' W 123°04'0 0.0
2016-Dec-02 19:32N 49°17' W 123°04'0 0.0
2016-Dec-02 18:32N 49°17' W 123°04'0 0.0
2016-Dec-02 17:32N 49°17' W 123°04'0 0.0
2016-Dec-02 16:32N 49°17' W 123°04'0 0.0
2016-Dec-02 15:32N 49°17' W 123°04'0 0.0
2016-Dec-02 14:32N 49°17' W 123°04'0 0.0
2016-Dec-02 13:32N 49°17' W 123°04'0 0.0
2016-Dec-02 12:32N 49°17' W 123°04'0 0.0
2016-Dec-02 11:32N 49°17' W 123°04'0 0.0
2016-Dec-02 10:32N 49°17' W 123°04'0 0.0
2016-Dec-02 09:32N 49°17' W 123°04'0 0.0
2016-Dec-02 08:32N 49°17' W 123°04'0 0.0
2016-Dec-02 07:32N 49°17' W 123°04'0 0.0
2016-Dec-02 06:32N 49°17' W 123°04'0 0.0
2016-Dec-02 05:32N 49°17' W 123°04'0 0.0
2016-Dec-02 04:32N 49°17' W 123°04'0 0.0
2016-Dec-02 03:32N 49°17' W 123°04'0 0.0
2016-Dec-02 02:32N 49°17' W 123°04'0 0.0
2016-Dec-02 01:29N 49°17' W 123°04'0 0.0
2016-Dec-02 00:32N 49°17' W 123°04'0 0.0
2016-Dec-01 23:32N 49°17' W 123°04'0 0.0
2016-Dec-01 22:32N 49°17' W 123°04'0 0.0
2016-Dec-01 21:32N 49°17' W 123°04'0 0.0
2016-Dec-01 20:32N 49°17' W 123°04'0 0.0
2016-Dec-01 19:32N 49°17' W 123°04'0 0.0
2016-Dec-01 18:32N 49°17' W 123°04'0 0.0
2016-Dec-01 17:32N 49°17' W 123°04'0 0.0
2016-Dec-01 16:32N 49°17' W 123°04'0 0.0
2016-Dec-01 15:32N 49°17' W 123°04'0 0.0
2016-Dec-01 14:32N 49°17' W 123°04'0 0.0
2016-Dec-01 13:32N 49°17' W 123°04'0 0.0
2016-Dec-01 12:32N 49°17' W 123°04'0 0.0
2016-Dec-01 11:32N 49°17' W 123°04'0 0.0
2016-Dec-01 10:32N 49°17' W 123°04'0 0.0
2016-Dec-01 09:32N 49°17' W 123°04'0 0.0
2016-Dec-01 08:32N 49°17' W 123°04'0 0.0
2016-Dec-01 07:32N 49°17' W 123°04'3 2.7
2016-Dec-01 06:34N 49°19' W 123°08'3 2.9
2016-Dec-01 05:32N 49°17' W 123°11'0 0.0
2016-Dec-01 04:29N 49°17' W 123°11'0 0.0
2016-Dec-01 03:32N 49°17' W 123°11'0 0.0
2016-Dec-01 02:32N 49°17' W 123°11'0 0.0
2016-Dec-01 01:32N 49°17' W 123°11'0 0.0
2016-Dec-01 00:32N 49°17' W 123°11'0 0.0
2016-Nov-30 23:32N 49°17' W 123°11'0 0.0
2016-Nov-30 22:32N 49°17' W 123°11'0 0.0
2016-Nov-30 21:32N 49°17' W 123°11'0 0.1
2016-Nov-30 20:32N 49°17' W 123°12'0 0.2
2016-Nov-30 19:32N 49°17' W 123°12'0 0.0
2016-Nov-30 18:32N 49°17' W 123°12'0 0.0
2016-Nov-30 17:32N 49°17' W 123°12'0 0.0
2016-Nov-30 16:32N 49°17' W 123°12'0 0.0
2016-Nov-30 15:32N 49°17' W 123°12'0 0.0
2016-Nov-30 14:32N 49°17' W 123°12'0 0.0
2016-Nov-30 13:32N 49°17' W 123°12'0 0.0
2016-Nov-30 12:32N 49°17' W 123°12'0 0.0
2016-Nov-30 11:32N 49°17' W 123°12'0 0.0
2016-Nov-30 10:32N 49°17' W 123°12'0 0.0
2016-Nov-30 09:32N 49°17' W 123°12'0 0.0
2016-Nov-30 08:32N 49°17' W 123°12'0 0.1
2016-Nov-30 07:32N 49°17' W 123°12'0 0.1
2016-Nov-30 06:32N 49°17' W 123°12'0 0.0
2016-Nov-30 05:32N 49°17' W 123°12'0 0.0
2016-Nov-30 04:32N 49°17' W 123°12'0 0.0
2016-Nov-30 03:32N 49°17' W 123°12'0 0.1
2016-Nov-30 02:32N 49°17' W 123°12'0 0.0
2016-Nov-30 01:32N 49°17' W 123°12'0 0.0
2016-Nov-30 00:32N 49°17' W 123°12'0 0.0
2016-Nov-29 23:32N 49°17' W 123°12'0 0.0
2016-Nov-29 22:32N 49°17' W 123°12'0 0.0
2016-Nov-29 21:32N 49°17' W 123°12'0 0.0
2016-Nov-29 20:32N 49°17' W 123°12'0 0.0
2016-Nov-29 19:32N 49°17' W 123°12'0 0.0
2016-Nov-29 18:32N 49°17' W 123°12'0 0.0
2016-Nov-29 17:32N 49°17' W 123°12'0 0.0
2016-Nov-29 16:32N 49°17' W 123°12'0 0.0
2016-Nov-29 15:32N 49°17' W 123°12'0 0.0
2016-Nov-29 14:32N 49°17' W 123°12'0 0.0
2016-Nov-29 13:32N 49°17' W 123°12'0 0.0
2016-Nov-29 12:32N 49°17' W 123°12'0 0.0
2016-Nov-29 11:32N 49°17' W 123°12'0 0.0
2016-Nov-29 10:32N 49°17' W 123°12'0 0.1
2016-Nov-29 09:32N 49°17' W 123°12'0 0.0
2016-Nov-29 08:32N 49°17' W 123°11'0 0.0
2016-Nov-29 07:32N 49°17' W 123°11'0 0.0
2016-Nov-29 06:32N 49°17' W 123°11'0 0.0
2016-Nov-29 05:32N 49°17' W 123°11'0 0.0
2016-Nov-29 04:32N 49°17' W 123°11'0 0.1
2016-Nov-29 03:32N 49°17' W 123°11'0 0.1
2016-Nov-29 02:32N 49°17' W 123°12'0 0.1
2016-Nov-29 01:32N 49°17' W 123°11'0 0.0
2016-Nov-29 00:32N 49°17' W 123°11'0 0.0
2016-Nov-28 23:32N 49°17' W 123°11'0 0.0
2016-Nov-28 22:32N 49°17' W 123°11'0 0.0
2016-Nov-28 21:32N 49°17' W 123°11'0 0.1
2016-Nov-28 20:32N 49°17' W 123°11'0 0.2
2016-Nov-28 19:32N 49°17' W 123°12'0 0.1
2016-Nov-28 18:32N 49°17' W 123°12'0 0.1
2016-Nov-28 17:32N 49°17' W 123°12'0 0.0
2016-Nov-28 16:32N 49°17' W 123°12'0 0.0
2016-Nov-28 15:32N 49°17' W 123°12'0 0.0
2016-Nov-28 14:32N 49°17' W 123°12'0 0.1
2016-Nov-28 13:32N 49°17' W 123°12'0 0.1
2016-Nov-28 12:32N 49°17' W 123°11'0 0.1
2016-Nov-28 11:32N 49°17' W 123°11'0 0.0
2016-Nov-28 10:32N 49°17' W 123°11'0 0.0
2016-Nov-28 09:32N 49°17' W 123°11'0 0.0
2016-Nov-28 08:32N 49°17' W 123°11'0 0.0
2016-Nov-28 07:32N 49°17' W 123°11'0 0.0
2016-Nov-28 06:32N 49°17' W 123°11'0 0.2
2016-Nov-28 05:32N 49°17' W 123°12'0 0.0
2016-Nov-28 04:32N 49°17' W 123°12'0 0.0
2016-Nov-28 03:32N 49°17' W 123°12'0 0.0
2016-Nov-28 02:32N 49°17' W 123°12'0 0.0
2016-Nov-28 01:32N 49°17' W 123°12'0 0.0
2016-Nov-28 00:32N 49°17' W 123°12'0 0.0
2016-Nov-27 23:32N 49°17' W 123°12'0 0.0
2016-Nov-27 22:32N 49°17' W 123°12'0 0.0
2016-Nov-27 21:32N 49°17' W 123°12'0 0.0
2016-Nov-27 20:32N 49°17' W 123°12'0 0.0
2016-Nov-27 19:29N 49°17' W 123°12'0 0.2
2016-Nov-27 18:33N 49°17' W 123°11'5 4.5
2016-Nov-27 17:31N 49°17' W 123°04'0 0.0
2016-Nov-27 16:31N 49°17' W 123°04'  

Dump ship's entire track history